Time;durP1;ratioP1;P1;durP2;ratioP2;P2;SDS_P1;SDS_P2;PMS_P1;PMS_P2;Temp;Humidity;BMP_temperature;BMP_pressure;BME280_temperature;BME280_humidity;BME280_pressure;Samples;Min_cycle;Max_cycle;Signal;HPM_P1;HPM_P2
2022/01/09 00:01:25;;;;;;;;;;;0.00;99.90;;;;;;6146409;23;19913;-86
2022/01/09 00:03:51;;;;;;;;;;;-0.10;99.90;;;;;;6146940;23;19923;-86
2022/01/09 00:06:17;;;;;;;;;;;-0.10;99.90;;;;;;6146319;23;19974;-86
2022/01/09 00:08:44;;;;;;;;;;;-0.10;99.90;;;;;;6172620;23;19912;-86
2022/01/09 00:11:10;;;;;;;;;;;-0.10;99.90;;;;;;6145950;23;19995;-86
2022/01/09 00:13:35;;;;;;;;;;;-0.10;99.90;;;;;;6174374;23;19912;-86
2022/01/09 00:16:01;;;;;;;;;;;-0.10;99.90;;;;;;6146057;23;19919;-86
2022/01/09 00:18:26;;;;;;;;;;;-0.10;99.90;;;;;;6146660;23;19915;-85
2022/01/09 00:20:52;;;;;;;;;;;-0.10;99.90;;;;;;6146390;23;19912;-86
2022/01/09 00:23:17;;;;;;;;;;;-0.10;99.90;;;;;;6173071;23;19915;-85
2022/01/09 00:25:43;;;;;;;;;;;-0.10;99.90;;;;;;6173291;23;19912;-85
2022/01/09 00:28:08;;;;;;;;;;;-0.10;99.90;;;;;;6146496;23;19936;-85
2022/01/09 00:30:34;;;;;;;;;;;-0.20;99.90;;;;;;6146364;23;19920;-85
2022/01/09 00:32:59;;;;;;;;;;;-0.10;99.90;;;;;;6173618;23;19912;-86
2022/01/09 00:35:25;;;;;;;;;;;-0.10;99.90;;;;;;6146380;23;20245;-86
2022/01/09 00:37:50;;;;;;;;;;;-0.20;99.90;;;;;;6146440;23;19912;-86
2022/01/09 00:40:16;;;;;;;;;;;-0.10;99.90;;;;;;6147401;23;19912;-85
2022/01/09 00:42:42;;;;;;;;;;;-0.10;99.90;;;;;;6118223;23;19916;-86
2022/01/09 00:45:08;;;;;;;;;;;-0.10;99.90;;;;;;6120402;23;19935;-85
2022/01/09 00:47:34;;;;;;;;;;;-0.10;99.90;;;;;;6118339;23;19912;-86
2022/01/09 00:50:00;;;;;;;;;;;-0.20;99.90;;;;;;6119229;23;19923;-85
2022/01/09 00:52:25;;;;;;;;;;;-0.10;99.90;;;;;;6144930;23;19912;-85
2022/01/09 00:54:51;;;;;;;;;;;-0.10;99.90;;;;;;6144590;23;19916;-85
2022/01/09 00:57:16;;;;;;;;;;;-0.10;99.90;;;;;;6118853;23;19909;-86
2022/01/09 00:59:42;;;;;;;;;;;-0.10;99.90;;;;;;6145858;23;19913;-85
2022/01/09 01:02:07;;;;;;;;;;;-0.10;99.90;;;;;;6094665;23;19984;-85
2022/01/09 01:04:33;;;;;;;;;;;-0.10;99.90;;;;;;6119043;23;19964;-85
2022/01/09 01:06:59;;;;;;;;;;;-0.10;99.90;;;;;;6116854;23;19917;-85
2022/01/09 01:09:26;;;;;;;;;;;-0.10;99.90;;;;;;6118993;23;19909;-86
2022/01/09 01:11:51;;;;;;;;;;;0.00;99.90;;;;;;6118404;23;19917;-86
2022/01/09 01:14:22;;;;;;;;;;;-0.10;99.90;;;;;;6119857;23;20297;-86
2022/01/09 01:16:47;;;;;;;;;;;-0.10;99.90;;;;;;6118607;23;20396;-86
2022/01/09 01:19:13;;;;;;;;;;;-0.10;99.90;;;;;;6145195;23;19913;-86
2022/01/09 01:21:39;;;;;;;;;;;-0.10;99.90;;;;;;6118812;23;19967;-86
2022/01/09 01:24:04;;;;;;;;;;;-0.10;99.90;;;;;;6143599;23;19999;-85
2022/01/09 01:26:30;;;;;;;;;;;-0.10;99.90;;;;;;6144143;23;19919;-86
2022/01/09 01:28:55;;;;;;;;;;;-0.20;99.90;;;;;;6144472;23;19932;-85
2022/01/09 01:31:21;;;;;;;;;;;-0.20;99.90;;;;;;6118252;23;19916;-86
2022/01/09 01:33:46;;;;;;;;;;;-0.10;99.90;;;;;;6118881;23;20274;-86
2022/01/09 01:36:12;;;;;;;;;;;-0.20;99.90;;;;;;6117418;23;19909;-86
2022/01/09 01:38:37;;;;;;;;;;;-0.20;99.90;;;;;;6143888;23;19942;-86
2022/01/09 01:41:03;;;;;;;;;;;-0.20;99.90;;;;;;6153828;23;19924;-85
2022/01/09 01:43:29;;;;;;;;;;;-0.20;99.90;;;;;;6174312;23;20423;-85
2022/01/09 01:45:54;;;;;;;;;;;-0.30;99.90;;;;;;6147385;23;19912;-87
2022/01/09 01:48:20;;;;;;;;;;;-0.30;99.90;;;;;;6148475;23;19920;-86
2022/01/09 01:50:48;;;;;;;;;;;-0.20;99.90;;;;;;6147141;23;19971;-86
2022/01/09 01:53:18;;;;;;;;;;;-0.30;99.90;;;;;;6147673;23;19913;-86
2022/01/09 01:55:44;;;;;;;;;;;-0.30;99.90;;;;;;6147665;23;19912;-86
2022/01/09 01:58:11;;;;;;;;;;;-0.30;99.90;;;;;;6174081;23;19975;-85
2022/01/09 02:00:41;;;;;;;;;;;-0.30;99.90;;;;;;6147609;23;19913;-86
2022/01/09 02:03:07;;;;;;;;;;;-0.30;99.90;;;;;;6148358;23;20216;-86
2022/01/09 02:05:32;;;;;;;;;;;-0.30;99.90;;;;;;6174039;23;19912;-85
2022/01/09 02:08:00;;;;;;;;;;;-0.30;99.90;;;;;;6148097;23;20283;-86
2022/01/09 02:10:25;;;;;;;;;;;-0.30;99.90;;;;;;6147040;23;20068;-85
2022/01/09 02:12:54;;;;;;;;;;;-0.30;99.90;;;;;;6148250;23;20325;-85
2022/01/09 02:15:38;;;;;;;;;;;-0.30;99.90;;;;;;6173898;23;19965;-85
2022/01/09 02:18:05;;;;;;;;;;;-0.40;99.90;;;;;;6147985;23;19919;-86
2022/01/09 02:20:31;;;;;;;;;;;-0.30;99.90;;;;;;6147689;23;20240;-85
2022/01/09 02:22:56;;;;;;;;;;;-0.30;99.90;;;;;;6147727;23;19912;-85
2022/01/09 02:25:22;;;;;;;;;;;-0.30;99.90;;;;;;6147435;23;20368;-85
2022/01/09 02:27:48;;;;;;;;;;;-0.30;99.90;;;;;;6147783;23;20253;-86
2022/01/09 02:30:13;;;;;;;;;;;-0.30;99.90;;;;;;6146744;23;19924;-85
2022/01/09 02:32:39;;;;;;;;;;;-0.30;99.90;;;;;;6173711;23;20319;-86
2022/01/09 02:35:05;;;;;;;;;;;-0.30;99.90;;;;;;6147996;23;19920;-85
2022/01/09 02:37:30;;;;;;;;;;;-0.30;99.90;;;;;;6146403;23;19995;-85
2022/01/09 02:39:56;;;;;;;;;;;-0.30;99.90;;;;;;6147512;23;19912;-86
2022/01/09 02:42:24;;;;;;;;;;;-0.30;99.90;;;;;;6145687;23;19920;-86
2022/01/09 02:44:51;;;;;;;;;;;-0.30;99.90;;;;;;6173939;23;19984;-85
2022/01/09 02:47:17;;;;;;;;;;;-0.30;99.90;;;;;;6147438;23;20332;-85
2022/01/09 02:49:47;;;;;;;;;;;-0.30;99.90;;;;;;6148592;23;20035;-85
2022/01/09 02:52:26;;;;;;;;;;;-0.30;99.90;;;;;;6146614;23;20252;-86
2022/01/09 02:57:35;;;;;;;;;;;-0.20;99.90;;;;;;6172183;23;19990;-86
2022/01/09 03:00:04;;;;;;;;;;;-0.30;99.90;;;;;;6172923;23;19920;-86
2022/01/09 03:02:30;;;;;;;;;;;-0.30;99.90;;;;;;6147002;23;19990;-86
2022/01/09 03:04:55;;;;;;;;;;;-0.30;99.90;;;;;;6173325;23;20270;-86
2022/01/09 03:07:21;;;;;;;;;;;-0.30;99.90;;;;;;6146959;23;19908;-86
2022/01/09 03:09:46;;;;;;;;;;;-0.30;99.90;;;;;;6147455;23;19913;-86
2022/01/09 03:12:12;;;;;;;;;;;-0.30;99.90;;;;;;6146953;23;19942;-86
2022/01/09 03:14:37;;;;;;;;;;;-0.20;99.90;;;;;;6174581;23;19913;-84
2022/01/09 03:17:03;;;;;;;;;;;-0.20;99.90;;;;;;6146468;23;19928;-85
2022/01/09 03:19:28;;;;;;;;;;;-0.20;99.90;;;;;;6147038;23;20344;-87
2022/01/09 03:21:54;;;;;;;;;;;-0.20;99.90;;;;;;6173066;23;19974;-86
2022/01/09 03:24:19;;;;;;;;;;;-0.30;99.90;;;;;;6173405;23;19917;-86
2022/01/09 03:26:45;;;;;;;;;;;-0.20;99.90;;;;;;6146661;23;19909;-85
2022/01/09 03:29:10;;;;;;;;;;;-0.20;99.90;;;;;;6147094;23;20369;-85
2022/01/09 03:31:36;;;;;;;;;;;-0.20;99.90;;;;;;6146901;23;19916;-85
2022/01/09 03:34:02;;;;;;;;;;;-0.20;99.90;;;;;;6173310;23;19912;-85
2022/01/09 03:36:27;;;;;;;;;;;-0.20;99.90;;;;;;6145977;23;19912;-85
2022/01/09 03:38:53;;;;;;;;;;;-0.20;99.90;;;;;;6146597;23;19919;-87
2022/01/09 03:41:18;;;;;;;;;;;-0.20;99.90;;;;;;6146290;23;19947;-86
2022/01/09 03:43:44;;;;;;;;;;;-0.30;99.90;;;;;;6173744;23;20499;-86
2022/01/09 03:46:09;;;;;;;;;;;-0.30;99.90;;;;;;6146604;23;19912;-86
2022/01/09 03:48:35;;;;;;;;;;;-0.30;99.90;;;;;;6174291;23;19908;-85
2022/01/09 03:51:02;;;;;;;;;;;-0.20;99.90;;;;;;6146871;23;19939;-84
2022/01/09 03:53:27;;;;;;;;;;;-0.20;99.90;;;;;;6147460;23;19909;-85
2022/01/09 03:55:55;;;;;;;;;;;-0.20;99.90;;;;;;6173130;23;20535;-86
2022/01/09 03:58:20;;;;;;;;;;;-0.20;99.90;;;;;;6147010;23;19912;-85
2022/01/09 04:00:45;;;;;;;;;;;-0.20;99.90;;;;;;6147321;23;20200;-85
2022/01/09 04:03:11;;;;;;;;;;;-0.20;99.90;;;;;;6147414;23;19983;-86
2022/01/09 04:05:36;;;;;;;;;;;-0.30;99.90;;;;;;6147283;23;19920;-86
2022/01/09 04:08:02;;;;;;;;;;;-0.30;99.90;;;;;;6173831;23;19982;-85
2022/01/09 04:10:29;;;;;;;;;;;-0.30;99.90;;;;;;6146629;23;19923;-86
2022/01/09 04:12:59;;;;;;;;;;;-0.20;99.90;;;;;;6147602;23;19913;-85
2022/01/09 04:15:25;;;;;;;;;;;-0.30;99.90;;;;;;6148281;23;20503;-86
2022/01/09 04:17:55;;;;;;;;;;;-0.30;99.90;;;;;;6148583;23;20351;-85
2022/01/09 04:20:21;;;;;;;;;;;-0.20;99.90;;;;;;6147971;23;19920;-86
2022/01/09 04:22:47;;;;;;;;;;;-0.30;99.90;;;;;;6148283;23;19908;-85
2022/01/09 04:25:13;;;;;;;;;;;-0.20;99.90;;;;;;6175165;23;19987;-85
2022/01/09 04:27:38;;;;;;;;;;;-0.20;99.90;;;;;;6149543;23;20329;-85
2022/01/09 04:30:05;;;;;;;;;;;-0.20;99.90;;;;;;6147602;23;20747;-86
2022/01/09 04:32:31;;;;;;;;;;;-0.10;99.90;;;;;;6147616;23;19912;-85
2022/01/09 04:34:56;;;;;;;;;;;-0.10;99.90;;;;;;6148842;23;19908;-85
2022/01/09 04:37:22;;;;;;;;;;;-0.10;99.90;;;;;;6147600;23;19909;-85
2022/01/09 04:39:49;;;;;;;;;;;-0.20;99.90;;;;;;6148589;23;19920;-85
2022/01/09 04:42:15;;;;;;;;;;;-0.20;99.90;;;;;;6146733;23;20021;-85
2022/01/09 04:44:40;;;;;;;;;;;-0.20;99.90;;;;;;6148153;23;19949;-85
2022/01/09 04:47:11;;;;;;;;;;;-0.20;99.90;;;;;;6148159;23;20321;-86
2022/01/09 04:49:37;;;;;;;;;;;-0.20;99.90;;;;;;6148413;23;19912;-85
2022/01/09 04:52:05;;;;;;;;;;;-0.20;99.90;;;;;;6173891;23;19982;-85
2022/01/09 04:54:30;;;;;;;;;;;-0.20;99.90;;;;;;6148172;23;19916;-86
2022/01/09 04:56:56;;;;;;;;;;;-0.20;99.90;;;;;;6147901;23;19962;-86
2022/01/09 04:59:21;;;;;;;;;;;-0.20;99.90;;;;;;6174804;23;19916;-85
2022/01/09 05:01:47;;;;;;;;;;;-0.20;99.90;;;;;;6147414;23;20418;-86
2022/01/09 05:04:12;;;;;;;;;;;-0.10;99.90;;;;;;6148446;23;19916;-85
2022/01/09 05:06:38;;;;;;;;;;;-0.20;99.90;;;;;;6148610;23;19912;-85
2022/01/09 05:09:03;;;;;;;;;;;-0.20;99.90;;;;;;6173817;23;19984;-85
2022/01/09 05:11:29;;;;;;;;;;;-0.20;99.90;;;;;;6147205;23;19928;-85
2022/01/09 05:13:54;;;;;;;;;;;-0.20;99.90;;;;;;6148201;23;19912;-86
2022/01/09 05:16:20;;;;;;;;;;;-0.20;99.90;;;;;;6174106;23;19912;-86
2022/01/09 05:18:54;;;;;;;;;;;-0.10;99.90;;;;;;6148593;23;19915;-86
2022/01/09 05:21:20;;;;;;;;;;;-0.10;99.90;;;;;;6147272;23;19923;-86
2022/01/09 05:23:45;;;;;;;;;;;-0.20;99.90;;;;;;6147622;23;20324;-86
2022/01/09 05:26:11;;;;;;;;;;;-0.20;99.90;;;;;;6172621;23;19920;-86
2022/01/09 05:28:36;;;;;;;;;;;-0.20;99.90;;;;;;6149170;23;19975;-86
2022/01/09 05:31:02;;;;;;;;;;;-0.10;99.90;;;;;;6172940;23;20127;-86
2022/01/09 05:33:27;;;;;;;;;;;-0.10;99.90;;;;;;6147501;23;20384;-87
2022/01/09 05:35:53;;;;;;;;;;;-0.10;99.90;;;;;;6147171;23;19912;-86
2022/01/09 05:38:19;;;;;;;;;;;-0.10;99.90;;;;;;6147365;23;19932;-86
2022/01/09 05:40:45;;;;;;;;;;;-0.20;99.90;;;;;;6173419;23;20356;-86
2022/01/09 05:43:11;;;;;;;;;;;-0.20;99.90;;;;;;6147535;23;19966;-86
2022/01/09 05:45:37;;;;;;;;;;;-0.10;99.90;;;;;;6174171;23;19990;-86
2022/01/09 05:48:02;;;;;;;;;;;-0.10;99.90;;;;;;6175085;23;20338;-85
2022/01/09 05:50:28;;;;;;;;;;;0.00;99.90;;;;;;6147365;23;19966;-85
2022/01/09 05:52:53;;;;;;;;;;;0.10;99.90;;;;;;6173841;23;19918;-86
2022/01/09 05:55:19;;;;;;;;;;;0.20;99.90;;;;;;6173297;23;19912;-86
2022/01/09 05:57:44;;;;;;;;;;;0.10;99.90;;;;;;6174490;23;19916;-86
2022/01/09 06:00:10;;;;;;;;;;;0.20;99.90;;;;;;6173666;23;20344;-86
2022/01/09 06:02:35;;;;;;;;;;;0.20;99.90;;;;;;6174972;23;19935;-86
2022/01/09 06:05:01;;;;;;;;;;;0.30;99.90;;;;;;6149303;23;19987;-86
2022/01/09 06:07:26;;;;;;;;;;;0.30;99.90;;;;;;6146892;23;20321;-86
2022/01/09 06:09:52;;;;;;;;;;;0.20;99.90;;;;;;6148284;23;19923;-86
2022/01/09 06:12:17;;;;;;;;;;;0.30;99.90;;;;;;6145858;23;20289;-85
2022/01/09 06:14:43;;;;;;;;;;;0.40;99.90;;;;;;6147819;23;20269;-86
2022/01/09 06:17:08;;;;;;;;;;;0.40;99.90;;;;;;6146540;23;19912;-85
2022/01/09 06:19:34;;;;;;;;;;;0.40;99.90;;;;;;6159804;23;20381;-86
2022/01/09 06:22:02;;;;;;;;;;;0.50;99.90;;;;;;6147218;23;21218;-85
2022/01/09 06:24:27;;;;;;;;;;;0.50;99.90;;;;;;6147960;23;19939;-85
2022/01/09 06:26:56;;;;;;;;;;;0.40;99.90;;;;;;6146475;23;20360;-86
2022/01/09 06:29:30;;;;;;;;;;;0.40;99.90;;;;;;6123044;23;19931;-86
2022/01/09 06:32:11;;;;;;;;;;;0.40;99.90;;;;;;6089030;23;19916;-86
2022/01/09 06:34:40;;;;;;;;;;;0.40;99.90;;;;;;6106151;23;19913;-85
2022/01/09 06:37:05;;;;;;;;;;;0.40;99.90;;;;;;6095428;23;19914;-85
2022/01/09 06:39:35;;;;;;;;;;;0.50;99.90;;;;;;6164471;23;20252;-85
2022/01/09 06:42:00;;;;;;;;;;;0.60;99.90;;;;;;6123675;23;19994;-84
2022/01/09 06:44:29;;;;;;;;;;;0.50;99.90;;;;;;6113725;23;19932;-85
2022/01/09 06:46:55;;;;;;;;;;;0.40;99.90;;;;;;6100230;23;19959;-84
2022/01/09 06:49:46;;;;;;;;;;;0.60;99.90;;;;;;6138413;23;19912;-84
2022/01/09 06:52:11;;;;;;;;;;;0.50;99.90;;;;;;6130228;23;19916;-84
2022/01/09 06:54:37;;;;;;;;;;;0.50;99.90;;;;;;6147659;23;20347;-84
2022/01/09 06:57:02;;;;;;;;;;;0.50;99.90;;;;;;6173086;23;20268;-84
2022/01/09 06:59:28;;;;;;;;;;;0.50;99.90;;;;;;6146883;23;19913;-85
2022/01/09 07:01:53;;;;;;;;;;;0.70;99.90;;;;;;6146825;23;19939;-85
2022/01/09 07:04:21;;;;;;;;;;;0.60;99.90;;;;;;6147589;23;19943;-85
2022/01/09 07:06:46;;;;;;;;;;;0.60;99.90;;;;;;6145898;23;19912;-85
2022/01/09 07:09:12;;;;;;;;;;;0.60;99.90;;;;;;6146987;23;20383;-85
2022/01/09 07:11:37;;;;;;;;;;;0.60;99.90;;;;;;6146534;23;19916;-85
2022/01/09 07:14:03;;;;;;;;;;;0.60;99.90;;;;;;6174144;23;20197;-85
2022/01/09 07:16:28;;;;;;;;;;;0.60;99.90;;;;;;6147209;23;20150;-84
2022/01/09 07:18:54;;;;;;;;;;;0.60;99.90;;;;;;6148169;23;20390;-85
2022/01/09 07:25:10;;;;;;;;;;;0.60;99.90;;;;;;6034781;23;19997;-85
2022/01/09 07:28:07;;;;;;;;;;;0.60;99.90;;;;;;5980711;23;20423;-85
2022/01/09 07:30:58;;;;;;;;;;;0.60;99.90;;;;;;5950848;23;20005;-86
2022/01/09 07:33:44;;;;;;;;;;;0.60;99.90;;;;;;6019607;23;19924;-85
2022/01/09 07:36:10;;;;;;;;;;;0.70;99.90;;;;;;5978854;23;19957;-86
2022/01/09 07:44:47;;;;;;;;;;;0.70;99.90;;;;;;6012810;23;19925;-85
2022/01/09 07:47:50;;;;;;;;;;;0.70;99.90;;;;;;5957635;23;19913;-85
2022/01/09 07:53:31;;;;;;;;;;;0.70;99.90;;;;;;6032019;23;19920;-86
2022/01/09 08:02:30;;;;;;;;;;;0.80;99.90;;;;;;6094028;23;20003;-84
2022/01/09 08:14:42;;;;;;;;;;;0.80;99.90;;;;;;6067522;23;19909;-85
2022/01/09 08:17:51;;;;;;;;;;;;;;;;;;;;;
2022/01/09 08:20:37;;;;;;;;;;;0.90;99.90;;;;;;5857134;24;20609;-85
2022/01/09 08:29:27;;;;;;;;;;;1.00;99.90;;;;;;5876278;24;19918;-86
2022/01/09 08:32:07;;;;;;;;;;;0.90;99.90;;;;;;5928047;23;20364;-86
2022/01/09 08:35:04;;;;;;;;;;;;;;;;;;;;;
2022/01/09 08:37:42;;;;;;;;;;;1.00;99.90;;;;;;5952900;23;19917;-86
2022/01/09 08:40:19;;;;;;;;;;;1.00;99.90;;;;;;5979985;23;19997;-86
2022/01/09 08:43:14;;;;;;;;;;;1.10;99.90;;;;;;5947605;23;19922;-86
2022/01/09 08:45:42;;;;;;;;;;;1.00;99.90;;;;;;5937765;23;20359;-86
2022/01/09 08:51:58;;;;;;;;;;;;;;;;;;;;;
2022/01/09 08:55:02;;;;;;;;;;;1.10;99.90;;;;;;5924381;23;21617;-86
2022/01/09 08:57:57;;;;;;;;;;;1.10;99.90;;;;;;5991579;23;20476;-86
2022/01/09 09:00:22;;;;;;;;;;;1.10;99.90;;;;;;6112552;23;19908;-84
2022/01/09 09:05:56;;;;;;;;;;;1.20;99.90;;;;;;6097841;23;20174;-84
2022/01/09 09:08:45;;;;;;;;;;;1.20;99.90;;;;;;6142562;23;19913;-84
2022/01/09 09:11:11;;;;;;;;;;;1.30;99.90;;;;;;6117902;23;20320;-84
2022/01/09 09:17:07;;;;;;;;;;;1.20;99.90;;;;;;6068895;23;19913;-84
2022/01/09 09:19:33;;;;;;;;;;;1.30;99.90;;;;;;6127854;23;19987;-84
2022/01/09 09:22:06;;;;;;;;;;;1.30;99.90;;;;;;6155555;23;20307;-84
2022/01/09 09:24:32;;;;;;;;;;;1.30;99.90;;;;;;6143444;23;19974;-84
2022/01/09 09:27:00;;;;;;;;;;;1.40;99.90;;;;;;6154272;23;19987;-84
2022/01/09 09:29:26;;;;;;;;;;;1.40;99.90;;;;;;6129416;23;20385;-84
2022/01/09 09:31:54;;;;;;;;;;;1.40;99.90;;;;;;6129730;23;20027;-83
2022/01/09 09:34:19;;;;;;;;;;;1.50;99.90;;;;;;6129640;23;20194;-84
2022/01/09 09:39:51;;;;;;;;;;;1.50;99.90;;;;;;6175154;23;19919;-84
2022/01/09 09:42:24;;;;;;;;;;;1.60;99.90;;;;;;6131815;23;20352;-85
2022/01/09 09:45:10;;;;;;;;;;;1.80;99.90;;;;;;6096445;23;19917;-86
2022/01/09 09:47:51;;;;;;;;;;;;;;;;;;;;;
2022/01/09 09:50:36;;;;;;;;;;;1.60;99.90;;;;;;6129149;23;20443;-85
2022/01/09 09:53:04;;;;;;;;;;;1.60;99.90;;;;;;6084003;23;20349;-85
2022/01/09 09:55:30;;;;;;;;;;;1.60;99.90;;;;;;6102182;23;20637;-85
2022/01/09 09:57:59;;;;;;;;;;;1.60;99.90;;;;;;6135328;23;19992;-85
2022/01/09 10:00:25;;;;;;;;;;;1.70;99.90;;;;;;6115754;23;19924;-84
2022/01/09 10:02:54;;;;;;;;;;;1.70;99.90;;;;;;6155590;23;19919;-84
2022/01/09 10:05:21;;;;;;;;;;;1.80;99.90;;;;;;6117413;23;19940;-85
2022/01/09 10:07:47;;;;;;;;;;;1.80;99.90;;;;;;6149042;23;20245;-84
2022/01/09 10:10:18;;;;;;;;;;;1.90;99.90;;;;;;6148704;23;19917;-83
2022/01/09 10:12:45;;;;;;;;;;;1.90;99.90;;;;;;6175373;23;19919;-84
2022/01/09 10:15:12;;;;;;;;;;;2.00;99.90;;;;;;6118479;23;19919;-83
2022/01/09 10:17:50;;;;;;;;;;;2.10;99.90;;;;;;6096141;23;19923;-84
2022/01/09 10:20:22;;;;;;;;;;;2.10;99.90;;;;;;6155596;23;20010;-84
2022/01/09 10:22:55;;;;;;;;;;;2.20;99.90;;;;;;6118029;23;19959;-84
2022/01/09 10:25:21;;;;;;;;;;;2.30;99.90;;;;;;6129928;23;19913;-84
2022/01/09 10:27:49;;;;;;;;;;;2.40;99.90;;;;;;6127007;23;19971;-85
2022/01/09 10:30:15;;;;;;;;;;;2.40;99.90;;;;;;6148089;23;19912;-82
2022/01/09 10:32:41;;;;;;;;;;;2.50;99.90;;;;;;6148790;23;19915;-82
2022/01/09 10:35:06;;;;;;;;;;;2.50;99.90;;;;;;6148568;23;19962;-82
2022/01/09 10:37:35;;;;;;;;;;;2.50;99.90;;;;;;6145522;23;20348;-80
2022/01/09 10:40:12;;;;;;;;;;;2.50;99.90;;;;;;6127182;23;20261;-83
2022/01/09 10:42:38;;;;;;;;;;;2.50;99.90;;;;;;6116589;23;19927;-83
2022/01/09 10:45:25;;;;;;;;;;;2.60;99.90;;;;;;6101631;23;20553;-83
2022/01/09 10:54:34;;;;;;;;;;;2.60;99.90;;;;;;6018912;23;19921;-87
2022/01/09 11:00:15;;;;;;;;;;;2.70;99.90;;;;;;5926252;24;19963;-87
2022/01/09 11:02:41;;;;;;;;;;;2.70;99.90;;;;;;5979272;23;20343;-87
2022/01/09 11:05:06;;;;;;;;;;;2.70;99.90;;;;;;6014586;23;19969;-86
2022/01/09 11:07:32;;;;;;;;;;;2.80;99.90;;;;;;6030488;23;20264;-87
2022/01/09 11:09:59;;;;;;;;;;;2.80;99.90;;;;;;6029837;23;19914;-87
2022/01/09 11:12:31;;;;;;;;;;;3.00;99.90;;;;;;5990129;23;19959;-90
2022/01/09 11:15:05;;;;;;;;;;;3.30;99.90;;;;;;6002251;23;20303;-89
2022/01/09 11:17:31;;;;;;;;;;;3.50;99.90;;;;;;6002662;23;19918;-89
2022/01/09 11:20:00;;;;;;;;;;;3.60;99.90;;;;;;6036323;23;19913;-90
2022/01/09 11:22:29;;;;;;;;;;;3.60;99.90;;;;;;6038471;23;20267;-87
2022/01/09 11:25:06;;;;;;;;;;;3.60;99.90;;;;;;6077426;23;19946;-87
2022/01/09 11:27:34;;;;;;;;;;;3.50;99.90;;;;;;6173142;23;19943;-86
2022/01/09 11:30:07;;;;;;;;;;;3.60;99.90;;;;;;6134312;23;19912;-86
2022/01/09 11:32:41;;;;;;;;;;;3.50;99.90;;;;;;6173240;23;19908;-85
2022/01/09 11:35:06;;;;;;;;;;;3.40;99.90;;;;;;6147838;23;19912;-85
2022/01/09 11:37:40;;;;;;;;;;;3.30;99.90;;;;;;6147164;23;19915;-85
2022/01/09 11:40:22;;;;;;;;;;;3.40;99.90;;;;;;6158404;23;20435;-86
2022/01/09 11:43:00;;;;;;;;;;;3.30;99.90;;;;;;6172105;23;19924;-87
2022/01/09 11:45:38;;;;;;;;;;;3.20;99.90;;;;;;6147154;23;20344;-85
2022/01/09 11:48:04;;;;;;;;;;;3.10;99.90;;;;;;6173987;23;19912;-85
2022/01/09 11:50:33;;;;;;;;;;;3.10;99.90;;;;;;6146186;23;19920;-87
2022/01/09 11:53:00;;;;;;;;;;;3.00;99.90;;;;;;6147218;23;19918;-86
2022/01/09 11:55:35;;;;;;;;;;;3.10;99.90;;;;;;6172275;23;19913;-86
2022/01/09 11:58:06;;;;;;;;;;;3.00;99.90;;;;;;6143738;23;22171;-86
2022/01/09 12:00:39;;;;;;;;;;;3.10;99.90;;;;;;6145256;23;19913;-86
2022/01/09 12:03:23;;;;;;;;;;;3.10;99.90;;;;;;6116890;23;19912;-85
2022/01/09 12:06:02;;;;;;;;;;;3.10;99.90;;;;;;6129012;23;19943;-86
2022/01/09 12:08:28;;;;;;;;;;;3.20;99.90;;;;;;6130201;23;19912;-86
2022/01/09 12:10:57;;;;;;;;;;;3.30;99.90;;;;;;6168437;23;19968;-86
2022/01/09 12:13:54;;;;;;;;;;;3.30;99.90;;;;;;6144947;23;19936;-86
2022/01/09 12:16:38;;;;;;;;;;;3.30;99.90;;;;;;6114318;23;20003;-87
2022/01/09 12:19:03;;;;;;;;;;;3.30;99.90;;;;;;6143609;23;19916;-86
2022/01/09 12:21:38;;;;;;;;;;;3.30;99.90;;;;;;6143109;23;19916;-86
2022/01/09 12:24:26;;;;;;;;;;;3.30;99.90;;;;;;6131415;23;19916;-88
2022/01/09 12:26:51;;;;;;;;;;;3.20;99.90;;;;;;6142979;23;19987;-86
2022/01/09 12:29:35;;;;;;;;;;;3.20;99.90;;;;;;6146157;23;19951;-87
2022/01/09 12:32:21;;;;;;;;;;;3.30;99.90;;;;;;6168201;23;20367;-87
2022/01/09 12:35:06;;;;;;;;;;;3.20;99.90;;;;;;6146693;23;20328;-87
2022/01/09 12:37:32;;;;;;;;;;;3.20;99.90;;;;;;6174092;23;19939;-87
2022/01/09 12:39:57;;;;;;;;;;;3.20;99.90;;;;;;6149086;23;19979;-86
2022/01/09 12:42:25;;;;;;;;;;;3.20;99.90;;;;;;6173861;23;19924;-86
2022/01/09 12:44:54;;;;;;;;;;;3.20;99.90;;;;;;6147768;23;19913;-88
2022/01/09 12:47:19;;;;;;;;;;;3.20;99.90;;;;;;6146416;23;19913;-87
2022/01/09 12:49:45;;;;;;;;;;;3.20;99.90;;;;;;6148347;23;19919;-87
2022/01/09 12:52:10;;;;;;;;;;;3.20;99.90;;;;;;6173689;23;19976;-88
2022/01/09 12:54:36;;;;;;;;;;;3.20;99.90;;;;;;6147834;23;20403;-88
2022/01/09 12:57:03;;;;;;;;;;;3.20;99.90;;;;;;6146464;23;19916;-87
2022/01/09 12:59:29;;;;;;;;;;;3.10;99.90;;;;;;6148446;23;19916;-87
2022/01/09 13:01:57;;;;;;;;;;;3.20;99.90;;;;;;6147412;23;19918;-88
2022/01/09 13:04:22;;;;;;;;;;;3.20;99.90;;;;;;6147602;23;19912;-88
2022/01/09 13:06:53;;;;;;;;;;;3.20;99.90;;;;;;6172406;23;19912;-88
2022/01/09 13:09:20;;;;;;;;;;;3.20;99.90;;;;;;6147442;23;19946;-88
2022/01/09 13:11:52;;;;;;;;;;;3.20;99.90;;;;;;6145923;23;19992;-87
2022/01/09 13:14:18;;;;;;;;;;;3.20;99.90;;;;;;6147920;23;19912;-88
2022/01/09 13:16:44;;;;;;;;;;;3.20;99.90;;;;;;6143477;23;19912;-89
2022/01/09 13:19:14;;;;;;;;;;;3.20;99.90;;;;;;6148857;23;19919;-88
2022/01/09 13:21:47;;;;;;;;;;;3.30;99.90;;;;;;6170230;23;20283;-89
2022/01/09 13:24:14;;;;;;;;;;;3.30;99.90;;;;;;6140250;23;19916;-89
2022/01/09 13:26:39;;;;;;;;;;;3.20;99.90;;;;;;6131631;23;20322;-87
2022/01/09 13:29:13;;;;;;;;;;;3.30;99.90;;;;;;6170768;23;19915;-89
2022/01/09 13:31:40;;;;;;;;;;;3.30;99.90;;;;;;6144460;23;20699;-88
2022/01/09 13:34:06;;;;;;;;;;;3.30;99.90;;;;;;6173949;23;19991;-86
2022/01/09 13:36:42;;;;;;;;;;;3.40;99.90;;;;;;6143899;23;19923;-87
2022/01/09 13:39:11;;;;;;;;;;;3.40;99.90;;;;;;6122844;23;20345;-87
2022/01/09 13:41:42;;;;;;;;;;;3.40;99.90;;;;;;6169505;23;20007;-89
2022/01/09 13:44:09;;;;;;;;;;;3.40;99.90;;;;;;6131818;23;19922;-88
2022/01/09 13:46:36;;;;;;;;;;;3.40;99.90;;;;;;6125739;23;20511;-88
2022/01/09 13:49:09;;;;;;;;;;;3.50;99.90;;;;;;6145953;23;20415;-88
2022/01/09 13:51:38;;;;;;;;;;;3.40;99.90;;;;;;6170718;23;19940;-89
2022/01/09 13:54:05;;;;;;;;;;;3.40;99.90;;;;;;6131537;23;19913;-88
2022/01/09 13:56:43;;;;;;;;;;;3.40;99.90;;;;;;6130719;23;20394;-88
2022/01/09 13:59:10;;;;;;;;;;;3.40;99.90;;;;;;6115719;23;19912;-88
2022/01/09 14:01:53;;;;;;;;;;;3.50;99.90;;;;;;6125312;23;19940;-89
2022/01/09 14:04:20;;;;;;;;;;;3.50;99.90;;;;;;6145556;23;19967;-88
2022/01/09 14:07:00;;;;;;;;;;;3.50;99.90;;;;;;6144455;23;20292;-88
2022/01/09 14:09:29;;;;;;;;;;;3.60;99.90;;;;;;6134285;23;19948;-89
2022/01/09 14:11:55;;;;;;;;;;;3.50;99.90;;;;;;6120703;23;19939;-89
2022/01/09 14:14:56;;;;;;;;;;;3.50;99.90;;;;;;6131806;23;19912;-89
2022/01/09 14:17:29;;;;;;;;;;;3.50;99.90;;;;;;5997337;23;19914;-89
2022/01/09 14:19:55;;;;;;;;;;;3.60;99.90;;;;;;6082060;23;19916;-89
2022/01/09 14:23:02;;;;;;;;;;;3.60;99.90;;;;;;6129928;23;19912;-91
2022/01/09 14:25:27;;;;;;;;;;;3.60;99.90;;;;;;5984678;23;20001;-90
2022/01/09 14:27:53;;;;;;;;;;;3.60;99.90;;;;;;6121531;23;20301;-89
2022/01/09 14:30:21;;;;;;;;;;;3.50;99.90;;;;;;6130879;23;19943;-90
2022/01/09 14:32:49;;;;;;;;;;;3.50;99.90;;;;;;6145211;23;19912;-89
2022/01/09 14:35:33;;;;;;;;;;;3.60;99.90;;;;;;6115749;23;20377;-90
2022/01/09 14:38:01;;;;;;;;;;;3.60;99.90;;;;;;6143486;23;19916;-90
2022/01/09 14:40:28;;;;;;;;;;;3.60;99.90;;;;;;6143297;23;19919;-90
2022/01/09 14:42:56;;;;;;;;;;;3.60;99.90;;;;;;6144700;23;19925;-89
2022/01/09 14:45:24;;;;;;;;;;;3.60;99.90;;;;;;6127828;23;20641;-88
2022/01/09 14:48:11;;;;;;;;;;;3.60;99.90;;;;;;6127711;23;19923;-89
2022/01/09 14:50:42;;;;;;;;;;;3.60;99.90;;;;;;6098163;23;19953;-90
2022/01/09 14:53:08;;;;;;;;;;;3.60;99.90;;;;;;6103228;23;20635;-91
2022/01/09 14:55:39;;;;;;;;;;;3.60;99.90;;;;;;6091122;23;19940;-91
2022/01/09 14:58:22;;;;;;;;;;;3.50;99.90;;;;;;6105780;23;20673;-90
2022/01/09 15:00:58;;;;;;;;;;;;;;;;;;;;;
2022/01/09 15:03:24;;;;;;;;;;;3.50;99.90;;;;;;6123845;23;19912;-90
2022/01/09 15:05:51;;;;;;;;;;;3.60;99.90;;;;;;6134776;23;19983;-90
2022/01/09 15:08:25;;;;;;;;;;;3.60;99.90;;;;;;6121460;23;19922;-92
2022/01/09 15:10:51;;;;;;;;;;;3.60;99.90;;;;;;6124538;23;20268;-93
2022/01/09 15:13:20;;;;;;;;;;;3.50;99.90;;;;;;6097763;23;19935;-93
2022/01/09 15:16:02;;;;;;;;;;;3.60;99.90;;;;;;6124587;23;19908;-94
2022/01/09 15:18:28;;;;;;;;;;;3.60;99.90;;;;;;6093699;23;19938;-93
2022/01/09 15:20:53;;;;;;;;;;;3.60;99.90;;;;;;6100497;23;20149;-92
2022/01/09 15:26:07;;;;;;;;;;;3.60;99.90;;;;;;6170672;23;19987;-92
2022/01/09 15:28:36;;;;;;;;;;;3.60;99.90;;;;;;6132221;23;19912;-92
2022/01/09 15:31:01;;;;;;;;;;;3.60;99.90;;;;;;6132414;23;19920;-89
2022/01/09 15:33:27;;;;;;;;;;;3.50;99.90;;;;;;6146732;23;19977;-91
2022/01/09 15:35:56;;;;;;;;;;;3.60;99.90;;;;;;6133053;23;19915;-89
2022/01/09 15:38:22;;;;;;;;;;;3.60;99.90;;;;;;6148591;23;19912;-88
2022/01/09 15:40:47;;;;;;;;;;;3.60;99.90;;;;;;6134639;23;19919;-87
2022/01/09 15:43:13;;;;;;;;;;;3.60;99.90;;;;;;6173779;23;20361;-86
2022/01/09 15:45:39;;;;;;;;;;;3.60;99.90;;;;;;6139408;23;19932;-87